Belle River, Canada
Current Conditions -  °F | °C
As of 10:00 AM on Wednesday 26 Nov 2014 (Local Time) from CYQG Reporting Station
Overcast Overcast  
Wind Chill: 32°   Ceiling: 3100
Heat Index: 32°   Visibility: 12mi
Dew Point: 25°   Wind: 3mph
Humidity: 75%   Direction: 80°E
Pressure: 30.16"   Gusts: NA
Location:  42.3°N, 82.72°W
Report Text: CYQG 261500Z 08003KT 040V110 12SM OVC031 M00/M04 A3016 RMK SC8 SLP222
Loading
Personal Weather Stations






























Interactive Weather Map New forecast layout! Learn more

10-Day Weather Forecast

Advertisements
Track Severe Weather on mobile